createdAt,value
2022-12-08T00:00:26.928Z,98412.00
2022-12-08T00:02:54.860Z,98407.63
2022-12-08T00:05:41.738Z,98408.97
2022-12-08T00:08:28.817Z,98408.56
2022-12-08T00:10:56.462Z,98412.81
2022-12-08T00:13:24.057Z,98400.25
2022-12-08T00:15:51.716Z,98404.56
2022-12-08T00:18:19.263Z,98408.81
2022-12-08T00:20:55.074Z,98409.41
2022-12-08T00:23:22.656Z,98396.91
2022-12-08T00:25:50.327Z,98399.88
2022-12-08T00:28:18.253Z,98397.56
2022-12-08T00:30:46.221Z,98390.28
2022-12-08T00:33:13.989Z,98392.41
2022-12-08T00:35:43.307Z,98395.69
2022-12-08T00:38:11.086Z,98387.69
2022-12-08T00:40:38.695Z,98386.09
2022-12-08T00:43:06.263Z,98380.16
2022-12-08T00:45:33.941Z,98379.38
2022-12-08T00:48:01.581Z,98377.84
2022-12-08T00:50:29.305Z,98383.53
2022-12-08T00:52:56.911Z,98378.47
2022-12-08T00:55:24.641Z,98373.44
2022-12-08T00:57:52.357Z,98380.84
2022-12-08T01:00:46.049Z,98372.28
2022-12-08T01:03:14.625Z,98370.00
2022-12-08T01:05:42.567Z,98374.66
2022-12-08T01:08:10.353Z,98376.59
2022-12-08T01:10:39.680Z,98376.16
2022-12-08T01:13:07.176Z,98380.56
2022-12-08T01:15:34.895Z,98375.41
2022-12-08T01:18:02.813Z,98376.50
2022-12-08T01:20:30.360Z,98379.38
2022-12-08T01:22:57.999Z,98389.94
2022-12-08T01:25:25.851Z,98386.53
2022-12-08T01:27:54.111Z,98378.94
2022-12-08T01:30:22.559Z,98382.94
2022-12-08T01:32:50.192Z,98389.63
2022-12-08T01:35:17.878Z,98390.72
2022-12-08T01:37:45.557Z,98394.97
2022-12-08T01:40:13.250Z,98387.31
2022-12-08T01:42:40.844Z,98380.31
2022-12-08T01:45:32.043Z,98391.94
2022-12-08T01:48:08.515Z,98383.38
2022-12-08T01:50:37.866Z,98383.56
2022-12-08T01:53:23.923Z,98393.63
2022-12-08T01:55:54.126Z,98389.22
2022-12-08T01:58:33.053Z,98390.34
2022-12-08T02:01:00.793Z,98386.81
2022-12-08T02:03:35.631Z,98381.59
2022-12-08T02:06:04.364Z,98375.22
2022-12-08T02:08:33.921Z,98359.38
2022-12-08T02:11:11.428Z,98357.56
2022-12-08T02:13:42.988Z,98354.78
2022-12-08T02:16:46.959Z,98363.59
2022-12-08T02:19:46.264Z,98364.72
2022-12-08T02:22:22.386Z,98352.97
2022-12-08T02:25:26.992Z,98350.63
2022-12-08T02:28:35.312Z,98348.88
2022-12-08T02:31:26.595Z,98342.78
2022-12-08T02:34:00.274Z,98340.28
2022-12-08T02:36:48.858Z,98339.44
2022-12-08T02:40:05.830Z,98328.97
2022-12-08T02:42:53.552Z,98333.31
2022-12-08T02:45:44.790Z,98336.22
2022-12-08T02:48:13.074Z,98327.56
2022-12-08T02:50:40.679Z,98330.22
2022-12-08T02:56:00.606Z,98325.63
2022-12-08T02:58:56.555Z,98331.81
2022-12-08T03:01:40.224Z,98327.38
2022-12-08T03:04:34.832Z,98327.47
2022-12-08T03:07:24.769Z,98326.84
2022-12-08T03:10:00.187Z,98318.03
2022-12-08T03:12:40.292Z,98318.91
2022-12-08T03:15:13.674Z,98325.56
2022-12-08T03:17:45.939Z,98317.59
2022-12-08T03:20:20.992Z,98316.13
2022-12-08T03:22:51.004Z,98313.34
2022-12-08T03:25:24.430Z,98318.78
2022-12-08T03:27:52.432Z,98319.44
2022-12-08T03:30:20.146Z,98313.97
2022-12-08T03:33:02.388Z,98311.28
2022-12-08T03:35:34.201Z,98312.25
2022-12-08T03:38:13.241Z,98315.94
2022-12-08T03:40:41.429Z,98312.25
2022-12-08T03:43:09.560Z,98300.97
2022-12-08T03:45:37.450Z,98288.63
2022-12-08T03:48:05.191Z,98286.22
2022-12-08T03:50:32.736Z,98281.47
2022-12-08T03:53:00.371Z,98279.66
2022-12-08T03:55:28.159Z,98286.66
2022-12-08T03:57:55.836Z,98277.78
2022-12-08T04:00:23.818Z,98278.66
2022-12-08T04:02:54.079Z,98289.28
2022-12-08T04:05:22.039Z,98273.47
2022-12-08T04:07:49.828Z,98278.81
2022-12-08T04:10:17.651Z,98289.44
2022-12-08T04:12:45.267Z,98283.91
2022-12-08T04:15:12.980Z,98285.69
2022-12-08T04:17:40.962Z,98277.66
2022-12-08T04:20:08.922Z,98286.41
2022-12-08T04:22:36.471Z,98274.00
2022-12-08T04:25:04.756Z,98273.22
2022-12-08T04:27:32.353Z,98269.59
2022-12-08T04:29:59.962Z,98263.38
2022-12-08T04:32:27.546Z,98266.13
2022-12-08T04:34:55.461Z,98269.56
2022-12-08T04:37:23.115Z,98274.00
2022-12-08T04:39:51.042Z,98265.16
2022-12-08T04:42:18.594Z,98261.81
2022-12-08T04:44:46.138Z,98263.94
2022-12-08T04:47:13.761Z,98271.38
2022-12-08T04:49:41.588Z,98264.03
2022-12-08T04:52:09.190Z,98264.06
2022-12-08T04:54:36.827Z,98262.19
2022-12-08T04:57:04.608Z,98269.28
2022-12-08T04:59:32.309Z,98269.31
2022-12-08T05:02:00.059Z,98261.25
2022-12-08T05:04:28.087Z,98255.03
2022-12-08T05:06:55.892Z,98253.28
2022-12-08T05:09:23.759Z,98256.97
2022-12-08T05:11:51.375Z,98253.44
2022-12-08T05:14:24.615Z,98255.19
2022-12-08T05:16:52.305Z,98248.16
2022-12-08T05:19:20.095Z,98255.31
2022-12-08T05:21:47.836Z,98244.72
2022-12-08T05:24:15.616Z,98247.38
2022-12-08T05:26:43.250Z,98242.19
2022-12-08T05:29:10.801Z,98242.19
2022-12-08T05:31:38.510Z,98244.00
2022-12-08T05:34:06.705Z,98240.50
2022-12-08T05:36:34.405Z,98236.94
2022-12-08T05:39:02.429Z,98240.47
2022-12-08T05:41:30.134Z,98245.78
2022-12-08T05:43:57.820Z,98246.75
2022-12-08T05:46:25.589Z,98241.53
2022-12-08T05:48:53.351Z,98244.16
2022-12-08T05:51:24.484Z,98242.38
2022-12-08T05:53:53.311Z,98245.97
2022-12-08T05:56:21.845Z,98238.00
2022-12-08T05:58:50.195Z,98236.28
2022-12-08T06:01:28.661Z,98232.81
2022-12-08T06:03:59.732Z,98241.66
2022-12-08T06:06:28.806Z,98239.88
2022-12-08T06:08:56.716Z,98242.63
2022-12-08T06:11:30.387Z,98239.88
2022-12-08T06:13:58.250Z,98238.25
2022-12-08T06:16:28.479Z,98248.97
2022-12-08T06:18:56.911Z,98244.56
2022-12-08T06:21:25.324Z,98241.91
2022-12-08T06:23:54.611Z,98238.41
2022-12-08T06:26:22.907Z,98246.41
2022-12-08T06:28:51.583Z,98244.66
2022-12-08T06:31:25.049Z,98242.91
2022-12-08T06:33:54.191Z,98247.44
2022-12-08T06:36:25.627Z,98249.28
2022-12-08T06:38:53.591Z,98247.47
2022-12-08T06:41:21.905Z,98247.50
2022-12-08T06:43:49.630Z,98241.53
2022-12-08T06:46:20.024Z,98244.25
2022-12-08T06:48:48.024Z,98251.97
2022-12-08T06:51:19.800Z,98258.03
2022-12-08T06:53:47.845Z,98259.81
2022-12-08T06:56:16.624Z,98246.78
2022-12-08T06:58:50.454Z,98244.88
2022-12-08T07:01:20.379Z,98240.41
2022-12-08T07:03:48.824Z,98243.03
2022-12-08T07:06:23.401Z,98249.28
2022-12-08T07:08:51.398Z,98256.31
2022-12-08T07:11:22.439Z,98254.63
2022-12-08T07:13:51.010Z,98255.50
2022-12-08T07:16:19.247Z,98263.59
2022-12-08T07:18:47.070Z,98263.50
2022-12-08T07:21:15.168Z,98267.03
2022-12-08T07:23:46.162Z,98257.28
2022-12-08T07:26:14.331Z,98257.28
2022-12-08T07:28:43.030Z,98261.69
2022-12-08T07:31:21.057Z,98258.13
2022-12-08T07:33:50.303Z,98259.88
2022-12-08T07:36:18.035Z,98265.16
2022-12-08T07:38:46.329Z,98266.31
2022-12-08T07:41:17.281Z,98274.19
2022-12-08T07:43:45.436Z,98277.56
2022-12-08T07:46:16.368Z,98284.81
2022-12-08T07:48:44.231Z,98279.50
2022-12-08T07:51:14.413Z,98269.97
2022-12-08T07:53:49.854Z,98275.38
2022-12-08T07:56:21.553Z,98269.75
2022-12-08T07:58:49.421Z,98273.03
2022-12-08T08:01:29.485Z,98264.81
2022-12-08T08:04:04.281Z,98263.84
2022-12-08T08:06:34.792Z,98259.38
2022-12-08T08:09:02.799Z,98259.59
2022-12-08T08:11:30.537Z,98255.84
2022-12-08T08:13:58.732Z,98252.59
2022-12-08T08:16:26.919Z,98261.44
2022-12-08T08:18:55.120Z,98249.53
2022-12-08T08:21:45.530Z,98252.09
2022-12-08T08:24:11.116Z,98250.13
2022-12-08T08:26:39.706Z,98253.41
2022-12-08T08:29:07.400Z,98254.09
2022-12-08T08:31:35.115Z,98258.47
2022-12-08T08:34:06.258Z,98255.06
2022-12-08T08:36:34.377Z,98254.63
2022-12-08T08:39:02.714Z,98258.94
2022-12-08T08:41:30.622Z,98257.38
2022-12-08T08:43:58.226Z,98249.38
2022-12-08T08:46:25.840Z,98254.13
2022-12-08T08:48:53.546Z,98254.66
2022-12-08T08:51:21.425Z,98255.72
2022-12-08T08:53:49.263Z,98250.09
2022-12-08T08:56:19.417Z,98244.50
2022-12-08T08:58:50.089Z,98246.13
2022-12-08T09:01:26.735Z,98242.69
2022-12-08T09:03:55.807Z,98247.63
2022-12-08T09:06:24.155Z,98245.13
2022-12-08T09:08:52.336Z,98242.38
2022-12-08T09:11:20.192Z,98240.59
2022-12-08T09:13:54.987Z,98227.59
2022-12-08T09:16:23.864Z,98227.25
2022-12-08T09:18:52.217Z,98234.03
2022-12-08T09:21:23.800Z,98217.97
2022-12-08T09:23:56.879Z,98221.56
2022-12-08T09:26:26.372Z,98222.13
2022-12-08T09:28:55.994Z,98225.34
2022-12-08T09:31:24.789Z,98224.53
2022-12-08T09:33:53.411Z,98217.34
2022-12-08T09:36:21.526Z,98217.00
2022-12-08T09:38:50.333Z,98214.63
2022-12-08T09:41:48.748Z,98215.44
2022-12-08T09:44:50.606Z,98207.22
2022-12-08T09:47:37.731Z,98197.88
2022-12-08T09:50:26.934Z,98191.84
2022-12-08T09:53:39.599Z,98188.13
2022-12-08T09:56:20.986Z,98190.59
2022-12-08T09:58:57.264Z,98192.53
2022-12-08T10:01:31.609Z,98176.38
2022-12-08T10:04:00.731Z,98187.94
2022-12-08T10:06:41.936Z,98176.53
2022-12-08T10:09:37.695Z,98184.69
2022-12-08T10:12:23.292Z,98171.31
2022-12-08T10:15:39.162Z,98167.84
2022-12-08T10:18:32.064Z,98162.59
2022-12-08T10:21:29.132Z,98162.03
2022-12-08T10:24:04.851Z,98151.75
2022-12-08T10:26:33.012Z,98150.09
2022-12-08T10:29:03.041Z,98144.50
2022-12-08T10:31:32.068Z,98141.41
2022-12-08T10:34:14.432Z,98145.34
2022-12-08T10:37:00.867Z,98140.50
2022-12-08T10:39:38.415Z,98135.47
2022-12-08T10:42:15.481Z,98132.63
2022-12-08T10:44:59.720Z,98131.28
2022-12-08T10:47:29.835Z,98133.94
2022-12-08T10:50:31.638Z,98124.22
2022-12-08T10:53:08.498Z,98121.50
2022-12-08T10:55:47.189Z,98124.81
2022-12-08T10:58:46.470Z,98117.84
2022-12-08T11:01:33.009Z,98112.97
2022-12-08T11:04:04.781Z,98112.16
2022-12-08T11:06:38.397Z,98098.91
2022-12-08T11:09:18.620Z,98094.97
2022-12-08T11:12:12.746Z,98093.81
2022-12-08T11:14:43.625Z,98086.38
2022-12-08T11:17:22.346Z,98085.94
2022-12-08T11:20:06.530Z,98074.63
2022-12-08T11:22:47.044Z,98065.16
2022-12-08T11:25:28.414Z,98069.88
2022-12-08T11:28:01.621Z,98066.63
2022-12-08T11:30:36.897Z,98062.88
2022-12-08T11:33:21.463Z,98061.41
2022-12-08T11:36:05.573Z,98063.03
2022-12-08T11:38:41.188Z,98060.91
2022-12-08T11:41:18.047Z,98058.41
2022-12-08T11:44:32.364Z,98052.56
2022-12-08T11:47:15.993Z,98049.09
2022-12-08T11:52:34.071Z,98047.75
2022-12-08T11:55:49.944Z,98050.91
2022-12-08T11:58:29.422Z,98042.34
2022-12-08T12:00:57.962Z,98039.19
2022-12-08T12:03:40.661Z,98038.44
2022-12-08T12:06:54.921Z,98034.88
2022-12-08T12:09:35.499Z,98040.44
2022-12-08T12:12:27.048Z,98028.56
2022-12-08T12:15:16.566Z,98032.44
2022-12-08T12:17:59.837Z,98037.25
2022-12-08T12:20:52.616Z,98043.97
2022-12-08T12:23:36.038Z,98020.03
2022-12-08T12:26:07.320Z,98024.22
2022-12-08T12:28:49.903Z,98034.88
2022-12-08T12:31:23.453Z,98020.53
2022-12-08T12:33:57.409Z,98023.66
2022-12-08T12:36:25.845Z,98021.50
2022-12-08T12:39:01.879Z,98012.44
2022-12-08T12:41:59.492Z,98015.91
2022-12-08T12:44:29.914Z,98003.97
2022-12-08T12:47:01.204Z,97989.19
2022-12-08T12:49:41.119Z,97995.09
2022-12-08T12:52:26.454Z,97998.97
2022-12-08T12:54:56.834Z,97986.88
2022-12-08T12:57:35.950Z,97982.41
2022-12-08T13:00:03.617Z,97978.41
2022-12-08T13:02:46.363Z,97978.78
2022-12-08T13:05:27.499Z,97972.31
2022-12-08T13:07:57.655Z,97966.56
2022-12-08T13:10:31.695Z,97978.00
2022-12-08T13:13:18.213Z,97978.75
2022-12-08T13:16:17.201Z,97976.09
2022-12-08T13:18:52.890Z,97973.75
2022-12-08T13:21:23.705Z,97979.25
2022-12-08T13:24:14.139Z,97972.28
2022-12-08T13:26:49.364Z,97978.34
2022-12-08T13:29:26.022Z,97969.25
2022-12-08T13:32:06.984Z,97970.56
2022-12-08T13:34:56.334Z,97977.06
2022-12-08T13:37:54.433Z,97977.41
2022-12-08T13:40:28.162Z,97964.66
2022-12-08T13:43:13.413Z,97962.13
2022-12-08T13:46:48.728Z,97969.53
2022-12-08T13:57:30.668Z,97959.31
2022-12-08T14:00:16.511Z,97950.41
2022-12-08T14:02:51.653Z,97959.31
2022-12-08T14:05:35.269Z,97966.31
2022-12-08T14:11:36.574Z,97964.63
2022-12-08T14:14:23.065Z,97967.91
2022-12-08T14:17:10.630Z,97970.44
2022-12-08T14:19:38.683Z,97969.94
2022-12-08T14:22:16.532Z,97972.00
2022-12-08T14:24:53.910Z,97972.50
2022-12-08T14:27:25.379Z,97975.28
2022-12-08T14:29:58.551Z,97965.72
2022-12-08T14:32:58.989Z,97973.38
2022-12-08T14:35:32.954Z,97965.66
2022-12-08T14:38:16.259Z,97964.13
2022-12-08T14:40:47.219Z,97974.56
2022-12-08T14:43:19.784Z,97973.19
2022-12-08T14:45:54.219Z,97973.44
2022-12-08T14:48:33.688Z,97958.78
2022-12-08T14:51:19.415Z,97959.66
2022-12-08T14:54:13.996Z,97971.41
2022-12-08T14:56:56.861Z,97969.28
2022-12-08T14:59:35.681Z,97966.41
2022-12-08T15:02:22.657Z,97970.66
2022-12-08T15:05:12.144Z,97967.41
2022-12-08T15:07:48.645Z,97963.19
2022-12-08T15:10:16.329Z,97970.25
2022-12-08T15:13:11.379Z,97974.94
2022-12-08T15:15:56.296Z,97976.66
2022-12-08T15:18:41.138Z,97967.72
2022-12-08T15:21:13.006Z,97984.81
2022-12-08T15:23:45.805Z,97991.28
2022-12-08T15:26:23.343Z,97983.50
2022-12-08T15:28:51.321Z,97980.69
2022-12-08T15:31:19.535Z,97976.09
2022-12-08T15:33:47.473Z,97972.63
2022-12-08T15:36:15.161Z,97979.00
2022-12-08T15:38:44.300Z,97969.03
2022-12-08T15:41:15.111Z,97971.53
2022-12-08T15:43:43.090Z,97970.78
2022-12-08T15:46:11.797Z,97971.34
2022-12-08T15:48:39.688Z,97977.78
2022-12-08T15:51:07.507Z,97973.91
2022-12-08T15:53:35.193Z,97964.47
2022-12-08T15:58:56.855Z,97957.25
2022-12-08T16:01:25.926Z,97959.84
2022-12-08T16:07:19.591Z,97957.63
2022-12-08T16:09:43.557Z,97963.19
2022-12-08T16:18:28.165Z,97942.97
2022-12-08T16:21:13.303Z,97942.13
2022-12-08T16:23:47.139Z,97946.88
2022-12-08T16:27:50.722Z,97946.47
2022-12-08T16:29:17.332Z,97940.56
2022-12-08T16:31:45.028Z,97941.78
2022-12-08T16:34:12.936Z,97938.09
2022-12-08T16:36:40.569Z,97937.13
2022-12-08T16:39:13.601Z,97942.59
2022-12-08T16:41:59.960Z,97932.53
2022-12-08T16:44:27.755Z,97933.28
2022-12-08T16:46:55.473Z,97925.84
2022-12-08T16:49:26.367Z,97930.81
2022-12-08T16:51:54.507Z,97926.94
2022-12-08T16:54:22.673Z,97935.38
2022-12-08T16:56:50.880Z,97941.84
2022-12-08T16:59:21.878Z,97938.97
2022-12-08T17:02:22.989Z,97939.63
2022-12-08T17:04:50.975Z,97934.72
2022-12-08T17:07:19.274Z,97936.38
2022-12-08T17:09:49.171Z,97936.28
2022-12-08T17:12:20.538Z,97932.69
2022-12-08T17:14:48.748Z,97931.69
2022-12-08T17:17:19.692Z,97926.41
2022-12-08T17:19:47.762Z,97923.94
2022-12-08T17:22:20.975Z,97924.81
2022-12-08T17:24:55.830Z,97921.59
2022-12-08T17:27:27.546Z,97924.53
2022-12-08T17:30:02.432Z,97929.63
2022-12-08T17:32:37.529Z,97929.75
2022-12-08T17:35:08.752Z,97928.41
2022-12-08T17:37:36.896Z,97929.09
2022-12-08T17:40:26.872Z,97935.16
2022-12-08T17:43:26.780Z,97943.63
2022-12-08T17:45:56.228Z,97941.22
2022-12-08T17:48:26.163Z,97928.66
2022-12-08T17:50:58.731Z,97937.97
2022-12-08T17:53:26.756Z,97927.59
2022-12-08T18:02:43.982Z,97932.44
2022-12-08T18:16:05.949Z,97947.88
2022-12-08T18:45:45.445Z,97922.25
2022-12-08T18:48:13.082Z,97920.06
2022-12-08T18:50:46.035Z,97923.78
2022-12-08T18:53:14.167Z,97928.56
2022-12-08T18:55:41.882Z,97924.03
2022-12-08T18:58:10.845Z,97923.06
2022-12-08T19:00:38.411Z,97923.81
2022-12-08T19:03:07.228Z,97922.78
2022-12-08T19:05:35.141Z,97916.84
2022-12-08T19:08:03.417Z,97916.03
2022-12-08T19:10:32.136Z,97919.06
2022-12-08T19:13:00.003Z,97916.75
2022-12-08T19:15:27.825Z,97913.91
2022-12-08T19:17:55.889Z,97916.09
2022-12-08T19:20:23.709Z,97915.19
2022-12-08T19:22:51.381Z,97914.38
2022-12-08T19:25:19.128Z,97910.25
2022-12-08T19:27:46.872Z,97904.56
2022-12-08T19:30:15.376Z,97907.53
2022-12-08T19:32:42.964Z,97907.41
2022-12-08T19:35:10.819Z,97910.28
2022-12-08T19:37:38.449Z,97910.97
2022-12-08T19:40:25.813Z,97908.31
2022-12-08T19:43:11.877Z,97905.53
2022-12-08T19:45:39.720Z,97910.59
2022-12-08T19:48:07.495Z,97903.06
2022-12-08T19:50:38.457Z,97894.81
2022-12-08T19:53:15.482Z,97893.00
2022-12-08T19:55:44.544Z,97889.75
2022-12-08T19:58:12.357Z,97889.16
2022-12-08T20:00:41.811Z,97894.69
2022-12-08T20:03:14.526Z,97889.47
2022-12-08T20:05:43.252Z,97892.19
2022-12-08T20:08:11.357Z,97895.09
2022-12-08T20:10:42.976Z,97889.78
2022-12-08T20:14:12.729Z,97903.41
2022-12-08T20:16:50.620Z,97894.19
2022-12-08T20:19:18.526Z,97895.97
2022-12-08T20:21:48.885Z,97889.22
2022-12-08T20:24:17.965Z,97907.16
2022-12-08T20:27:11.073Z,97908.75
2022-12-08T20:29:38.970Z,97907.06
2022-12-08T20:32:07.096Z,97905.56
2022-12-08T20:34:35.087Z,97899.84
2022-12-08T20:37:03.166Z,97910.25
2022-12-08T20:39:30.890Z,97902.41
2022-12-08T20:42:00.033Z,97892.69
2022-12-08T20:44:30.974Z,97902.75
2022-12-08T20:46:58.688Z,97900.03
2022-12-08T20:49:31.266Z,97893.94
2022-12-08T20:52:02.248Z,97894.13
2022-12-08T20:54:30.061Z,97903.41
2022-12-08T20:56:57.863Z,97901.34
2022-12-08T20:59:26.718Z,97904.72
2022-12-08T21:01:55.086Z,97903.72
2022-12-08T21:04:23.721Z,97899.59
2022-12-08T21:06:51.863Z,97907.66
2022-12-08T21:09:20.056Z,97905.19
2022-12-08T21:11:48.126Z,97908.03
2022-12-08T21:14:21.749Z,97908.84
2022-12-08T21:16:51.034Z,97900.97
2022-12-08T21:19:19.862Z,97905.25
2022-12-08T21:21:50.508Z,97899.28
2022-12-08T21:24:19.351Z,97904.84
2022-12-08T21:26:47.412Z,97899.72
2022-12-08T21:29:15.231Z,97897.00
2022-12-08T21:31:42.938Z,97892.56
2022-12-08T21:34:11.507Z,97897.38
2022-12-08T21:36:39.438Z,97891.31
2022-12-08T21:39:12.700Z,97892.38
2022-12-08T21:41:59.524Z,97896.69
2022-12-08T21:44:27.500Z,97907.50
2022-12-08T21:46:55.260Z,97900.28
2022-12-08T21:49:22.990Z,97906.66
2022-12-08T21:51:50.979Z,97901.44
2022-12-08T21:54:19.593Z,97908.78
2022-12-08T21:56:49.739Z,97900.88
2022-12-08T21:59:18.838Z,97903.66
2022-12-08T22:01:47.019Z,97903.84
2022-12-08T22:04:19.068Z,97907.41
2022-12-08T22:06:47.421Z,97902.22
2022-12-08T22:09:15.869Z,97904.97
2022-12-08T22:11:44.865Z,97908.66
2022-12-08T22:14:14.902Z,97906.78
2022-12-08T22:16:48.386Z,97904.88
2022-12-08T22:19:16.674Z,97906.03
2022-12-08T22:21:44.743Z,97905.13
2022-12-08T22:24:12.617Z,97897.16
2022-12-08T22:26:40.266Z,97896.22
2022-12-08T22:29:08.906Z,97901.59
2022-12-08T22:31:37.065Z,97898.16
2022-12-08T22:34:04.759Z,97897.31
2022-12-08T22:36:33.294Z,97902.56
2022-12-08T22:39:02.705Z,97901.72
2022-12-08T22:41:31.041Z,97897.31
2022-12-08T22:43:58.708Z,97896.41
2022-12-08T22:46:27.900Z,97897.41
2022-12-08T22:48:55.803Z,97892.94
2022-12-08T22:51:24.340Z,97900.25
2022-12-08T22:53:52.291Z,97887.91
2022-12-08T22:56:20.717Z,97885.19
2022-12-08T22:58:48.698Z,97882.50
2022-12-08T23:01:37.433Z,97884.50
2022-12-08T23:04:05.735Z,97883.69
2022-12-08T23:06:33.968Z,97878.44
2022-12-08T23:09:01.995Z,97873.22
2022-12-08T23:11:30.913Z,97871.56
2022-12-08T23:14:03.040Z,97865.41
2022-12-08T23:16:31.226Z,97869.88
2022-12-08T23:18:59.668Z,97877.03
2022-12-08T23:21:27.618Z,97870.16
2022-12-08T23:23:55.406Z,97867.47
2022-12-08T23:26:30.066Z,97863.88
2022-12-08T23:28:58.590Z,97859.66
2022-12-08T23:31:27.246Z,97857.91
2022-12-08T23:33:55.549Z,97857.88
2022-12-08T23:36:27.453Z,97851.81
2022-12-08T23:38:55.868Z,97852.47
2022-12-08T23:41:23.481Z,97845.53
2022-12-08T23:44:16.879Z,97842.34
2022-12-08T23:46:44.545Z,97842.13
2022-12-08T23:49:12.783Z,97834.28
2022-12-08T23:51:40.994Z,97838.59
2022-12-08T23:54:09.337Z,97826.31
2022-12-08T23:56:37.059Z,97822.75
2022-12-08T23:59:04.826Z,97822.69
